createdAt,value
2017-07-08T00:02:03.074Z,99.90
2017-07-08T00:04:30.814Z,99.90
2017-07-08T00:06:58.337Z,99.90
2017-07-08T00:09:26.823Z,99.90
2017-07-08T00:11:55.219Z,99.90
2017-07-08T00:14:22.822Z,99.90
2017-07-08T00:16:51.506Z,99.90
2017-07-08T00:19:19.166Z,99.90
2017-07-08T00:21:46.822Z,99.90
2017-07-08T00:24:14.346Z,99.90
2017-07-08T00:26:41.908Z,99.90
2017-07-08T00:29:09.454Z,99.90
2017-07-08T00:31:37.181Z,99.90
2017-07-08T00:34:05.002Z,99.90
2017-07-08T00:36:32.682Z,99.90
2017-07-08T00:39:00.192Z,99.90
2017-07-08T00:41:27.950Z,99.90
2017-07-08T00:43:55.566Z,99.90
2017-07-08T00:46:23.266Z,99.90
2017-07-08T00:48:50.818Z,99.90
2017-07-08T00:51:18.494Z,99.90
2017-07-08T00:53:46.064Z,99.90
2017-07-08T00:56:13.842Z,99.90
2017-07-08T00:58:41.466Z,99.90
2017-07-08T01:01:09.174Z,99.90
2017-07-08T01:03:38.146Z,99.90
2017-07-08T01:06:05.913Z,99.90
2017-07-08T01:08:33.499Z,99.90
2017-07-08T01:11:01.017Z,99.90
2017-07-08T01:13:28.553Z,99.90
2017-07-08T01:15:56.415Z,99.90
2017-07-08T01:18:23.962Z,99.90
2017-07-08T01:20:51.571Z,99.90
2017-07-08T01:23:19.133Z,99.90
2017-07-08T01:25:46.707Z,99.90
2017-07-08T01:28:14.629Z,99.90
2017-07-08T01:30:43.185Z,99.90
2017-07-08T01:33:10.715Z,99.90
2017-07-08T01:35:38.542Z,99.90
2017-07-08T01:38:06.078Z,99.90
2017-07-08T01:40:33.645Z,99.90
2017-07-08T01:43:01.213Z,99.90
2017-07-08T01:45:28.870Z,99.90
2017-07-08T01:47:56.514Z,99.90
2017-07-08T01:50:24.633Z,99.90
2017-07-08T01:52:52.173Z,99.90
2017-07-08T01:55:19.984Z,99.90
2017-07-08T01:57:47.615Z,99.90
2017-07-08T02:00:15.373Z,99.90
2017-07-08T02:02:43.117Z,99.90
2017-07-08T02:05:10.649Z,99.90
2017-07-08T02:07:38.157Z,99.90
2017-07-08T02:10:06.524Z,99.90
2017-07-08T02:12:34.361Z,99.90
2017-07-08T02:15:01.988Z,99.90
2017-07-08T02:17:29.593Z,99.90
2017-07-08T02:19:57.251Z,99.90
2017-07-08T02:22:24.925Z,99.90
2017-07-08T02:24:52.530Z,99.90
2017-07-08T02:27:20.169Z,99.90
2017-07-08T02:29:48.531Z,99.90
2017-07-08T02:32:16.417Z,99.90
2017-07-08T02:34:44.283Z,99.90
2017-07-08T02:37:11.970Z,99.90
2017-07-08T02:39:40.489Z,99.90
2017-07-08T02:42:08.937Z,99.90
2017-07-08T02:44:36.635Z,99.90
2017-07-08T02:47:04.929Z,99.90
2017-07-08T02:49:34.065Z,99.90
2017-07-08T02:52:01.826Z,99.90
2017-07-08T02:54:29.453Z,99.90
2017-07-08T02:56:57.766Z,99.90
2017-07-08T02:59:25.629Z,99.90
2017-07-08T03:01:53.313Z,99.90
2017-07-08T03:04:21.710Z,99.90
2017-07-08T03:06:49.242Z,99.90
2017-07-08T03:09:16.814Z,99.90
2017-07-08T03:11:44.359Z,99.90
2017-07-08T03:14:12.234Z,99.90
2017-07-08T03:16:39.794Z,99.90
2017-07-08T03:19:07.741Z,99.90
2017-07-08T03:21:35.341Z,99.90
2017-07-08T03:24:02.890Z,99.90
2017-07-08T03:26:31.515Z,99.90
2017-07-08T03:28:59.241Z,99.90
2017-07-08T03:31:27.787Z,99.90
2017-07-08T03:33:55.482Z,99.90
2017-07-08T03:36:23.858Z,99.90
2017-07-08T03:38:52.167Z,99.90
2017-07-08T03:41:19.739Z,99.90
2017-07-08T03:43:47.659Z,99.90
2017-07-08T03:46:15.535Z,99.90
2017-07-08T03:48:43.330Z,99.90
2017-07-08T03:51:11.193Z,99.90
2017-07-08T03:53:38.787Z,99.90
2017-07-08T03:56:06.349Z,99.90
2017-07-08T03:58:34.890Z,99.90
2017-07-08T04:01:02.813Z,99.90
2017-07-08T04:03:31.224Z,99.90
2017-07-08T04:05:58.883Z,99.90
2017-07-08T04:08:26.423Z,99.90
2017-07-08T04:10:53.990Z,99.90
2017-07-08T04:13:21.539Z,99.90
2017-07-08T04:15:49.274Z,99.90
2017-07-08T04:18:17.550Z,99.90
2017-07-08T04:20:46.604Z,99.90
2017-07-08T04:23:14.130Z,99.90
2017-07-08T04:25:41.667Z,99.90
2017-07-08T04:28:09.181Z,99.90
2017-07-08T04:30:36.715Z,99.90
2017-07-08T04:33:04.335Z,99.90
2017-07-08T04:35:32.677Z,99.90
2017-07-08T04:38:02.258Z,99.90
2017-07-08T04:40:29.839Z,99.90
2017-07-08T04:42:57.684Z,99.90
2017-07-08T04:45:25.317Z,99.90
2017-07-08T04:47:52.953Z,99.90
2017-07-08T04:50:21.613Z,99.90
2017-07-08T04:52:49.334Z,99.90
2017-07-08T04:55:16.882Z,99.90
2017-07-08T05:20:06.002Z,99.90
2017-07-08T05:22:33.767Z,99.90
2017-07-08T05:25:01.302Z,99.90
2017-07-08T05:27:29.611Z,99.90
2017-07-08T05:29:57.220Z,99.90
2017-07-08T05:32:24.810Z,99.90
2017-07-08T05:34:52.618Z,99.90
2017-07-08T05:37:21.249Z,99.90
2017-07-08T05:39:48.756Z,99.90
2017-07-08T05:42:17.145Z,99.90
2017-07-08T05:44:44.716Z,99.90
2017-07-08T05:47:12.342Z,99.90
2017-07-08T05:49:40.676Z,99.90
2017-07-08T05:52:11.449Z,99.90
2017-07-08T05:54:39.726Z,99.90
2017-07-08T05:57:08.262Z,99.90
2017-07-08T05:59:36.031Z,99.90
2017-07-08T06:02:03.666Z,99.90
2017-07-08T06:04:31.197Z,99.90
2017-07-08T06:06:58.726Z,99.90
2017-07-08T06:09:26.330Z,99.90
2017-07-08T06:11:53.845Z,99.90
2017-07-08T06:14:21.421Z,99.90
2017-07-08T06:16:49.694Z,99.90
2017-07-08T06:19:24.097Z,99.90
2017-07-08T06:21:51.602Z,99.90
2017-07-08T06:24:19.117Z,99.90
2017-07-08T06:26:47.460Z,99.90
2017-07-08T06:29:15.001Z,99.90
2017-07-08T06:31:42.602Z,99.90
2017-07-08T06:34:11.324Z,99.90
2017-07-08T06:36:38.893Z,99.90
2017-07-08T06:39:06.497Z,99.90
2017-07-08T06:41:34.078Z,99.90
2017-07-08T06:44:02.377Z,99.90
2017-07-08T06:46:30.261Z,99.90
2017-07-08T06:48:57.967Z,99.90
2017-07-08T06:51:26.252Z,99.90
2017-07-08T06:53:54.661Z,99.90
2017-07-08T06:56:22.180Z,99.90
2017-07-08T06:58:50.571Z,99.90
2017-07-08T07:01:18.303Z,99.90
2017-07-08T07:08:44.934Z,99.90
2017-07-08T07:11:12.518Z,99.90
2017-07-08T07:13:40.086Z,99.90
2017-07-08T07:16:07.621Z,99.00
2017-07-08T07:18:35.142Z,99.70
2017-07-08T07:21:02.681Z,93.90
2017-07-08T07:23:30.486Z,87.60
2017-07-08T07:25:57.998Z,79.10
2017-07-08T07:28:25.608Z,73.10
2017-07-08T07:30:53.358Z,91.50
2017-07-08T07:33:20.928Z,92.40
2017-07-08T07:35:48.438Z,99.90
2017-07-08T07:38:16.005Z,99.90
2017-07-08T07:40:44.735Z,98.30
2017-07-08T07:43:12.273Z,90.80
2017-07-08T07:45:39.945Z,90.70
2017-07-08T07:48:07.450Z,89.10
2017-07-08T07:50:35.033Z,96.50
2017-07-08T07:53:02.917Z,99.50
2017-07-08T07:55:30.494Z,99.90
2017-07-08T07:57:58.059Z,99.90
2017-07-08T08:00:25.854Z,99.90
2017-07-08T08:02:53.395Z,99.90
2017-07-08T08:05:20.950Z,99.90
2017-07-08T08:07:49.708Z,99.90
2017-07-08T08:10:17.247Z,99.90
2017-07-08T08:12:45.417Z,99.90
2017-07-08T08:15:12.930Z,99.90
2017-07-08T08:17:40.533Z,99.90
2017-07-08T08:20:08.049Z,99.90
2017-07-08T08:22:35.592Z,99.90
2017-07-08T08:25:03.109Z,99.90
2017-07-08T08:27:31.829Z,99.90
2017-07-08T08:30:00.222Z,85.90
2017-07-08T08:32:28.025Z,85.80
2017-07-08T08:34:55.782Z,92.40
2017-07-08T08:37:23.550Z,92.00
2017-07-08T08:39:51.175Z,88.40
2017-07-08T08:42:19.466Z,71.80
2017-07-08T08:44:47.055Z,71.90
2017-07-08T08:47:14.910Z,85.70
2017-07-08T08:49:42.442Z,90.30
2017-07-08T08:52:10.434Z,96.20
2017-07-08T08:54:37.950Z,94.00
2017-07-08T08:57:05.595Z,99.90
2017-07-08T08:59:34.051Z,99.90
2017-07-08T09:02:01.714Z,99.90
2017-07-08T09:04:29.565Z,99.90
2017-07-08T09:06:57.178Z,99.90
2017-07-08T09:09:24.734Z,97.30
2017-07-08T09:11:52.273Z,93.50
2017-07-08T09:14:20.578Z,97.10
2017-07-08T09:16:48.094Z,97.00
2017-07-08T09:19:15.630Z,99.90
2017-07-08T09:21:43.153Z,97.20
2017-07-08T09:24:10.865Z,93.30
2017-07-08T09:26:38.861Z,93.30
2017-07-08T09:29:06.430Z,89.60
2017-07-08T09:31:34.238Z,83.20
2017-07-08T09:34:02.141Z,75.80
2017-07-08T09:36:29.799Z,74.10
2017-07-08T09:38:58.573Z,84.10
2017-07-08T09:41:26.940Z,81.90
2017-07-08T09:43:55.217Z,83.50
2017-07-08T09:46:23.940Z,90.90
2017-07-08T09:48:51.444Z,90.90
2017-07-08T09:51:19.163Z,91.30
2017-07-08T09:53:47.638Z,94.10
2017-07-08T09:56:15.342Z,94.50
2017-07-08T09:58:43.187Z,94.30
2017-07-08T10:01:10.762Z,96.90
2017-07-08T10:03:39.194Z,92.40
2017-07-08T10:06:06.961Z,92.40
2017-07-08T10:08:35.885Z,80.00
2017-07-08T10:11:03.726Z,83.30
2017-07-08T10:13:31.277Z,85.50
2017-07-08T10:15:58.796Z,70.10
2017-07-08T10:18:26.325Z,70.80
2017-07-08T10:20:53.862Z,75.60
2017-07-08T10:23:21.388Z,83.20
2017-07-08T10:25:48.949Z,73.60
2017-07-08T10:28:16.498Z,76.90
2017-07-08T10:30:44.133Z,84.10
2017-07-08T10:33:12.674Z,76.00
2017-07-08T10:35:40.279Z,76.00
2017-07-08T10:38:07.848Z,71.90
2017-07-08T10:40:35.380Z,70.60
2017-07-08T10:43:03.773Z,78.30
2017-07-08T10:45:32.091Z,80.40
2017-07-08T10:47:59.694Z,80.20
2017-07-08T10:50:28.043Z,61.40
2017-07-08T10:52:56.322Z,60.70
2017-07-08T10:55:24.799Z,62.10
2017-07-08T10:57:52.679Z,59.50
2017-07-08T11:00:20.795Z,64.50
2017-07-08T11:02:48.362Z,53.90
2017-07-08T11:05:15.957Z,62.40
2017-07-08T11:07:43.474Z,47.80
2017-07-08T11:10:11.070Z,50.10
2017-07-08T11:12:39.141Z,54.80
2017-07-08T11:15:06.714Z,55.70
2017-07-08T11:17:35.366Z,63.10
2017-07-08T11:20:02.940Z,61.90
2017-07-08T11:22:30.989Z,71.70
2017-07-08T11:24:58.545Z,60.20
2017-07-08T11:27:26.223Z,58.40
2017-07-08T11:29:53.795Z,58.00
2017-07-08T11:32:21.352Z,60.80
2017-07-08T11:34:48.916Z,71.00
2017-07-08T11:37:16.778Z,52.60
2017-07-08T11:39:45.054Z,51.70
2017-07-08T11:42:13.347Z,51.30
2017-07-08T11:44:42.610Z,51.20
2017-07-08T11:47:10.161Z,48.30
2017-07-08T11:49:37.739Z,52.40
2017-07-08T11:52:06.018Z,53.90
2017-07-08T11:54:34.142Z,51.90
2017-07-08T11:57:01.843Z,48.30
2017-07-08T11:59:30.745Z,45.30
2017-07-08T12:01:59.488Z,45.10
2017-07-08T12:04:27.072Z,44.90
2017-07-08T12:06:54.926Z,38.10
2017-07-08T12:09:22.500Z,44.50
2017-07-08T12:11:50.038Z,40.80
2017-07-08T12:14:18.095Z,49.20
2017-07-08T12:16:45.955Z,44.70
2017-07-08T12:19:13.516Z,40.80
2017-07-08T12:21:42.510Z,46.10
2017-07-08T12:24:10.214Z,48.40
2017-07-08T12:26:37.749Z,45.90
2017-07-08T12:29:05.288Z,45.30
2017-07-08T12:31:32.854Z,48.20
2017-07-08T12:34:00.389Z,48.50
2017-07-08T12:36:27.925Z,46.10
2017-07-08T12:38:55.610Z,51.20
2017-07-08T12:41:23.482Z,48.90
2017-07-08T12:43:51.721Z,52.20
2017-07-08T12:46:20.443Z,47.90
2017-07-08T12:48:48.249Z,50.60
2017-07-08T12:51:16.545Z,49.20
2017-07-08T12:53:44.317Z,49.60
2017-07-08T12:56:12.353Z,52.60
2017-07-08T12:58:40.946Z,39.10
2017-07-08T13:01:08.947Z,39.20
2017-07-08T13:03:36.714Z,47.80
2017-07-08T13:06:04.311Z,45.50
2017-07-08T13:08:33.700Z,49.60
2017-07-08T13:11:01.495Z,49.30
2017-07-08T13:13:29.335Z,54.00
2017-07-08T13:15:57.166Z,55.90
2017-07-08T13:18:25.062Z,53.40
2017-07-08T13:20:52.594Z,53.50
2017-07-08T13:23:20.202Z,55.30
2017-07-08T13:25:47.958Z,49.20
2017-07-08T13:28:16.261Z,51.10
2017-07-08T13:30:43.809Z,50.90
2017-07-08T13:33:11.313Z,52.40
2017-07-08T13:35:38.814Z,55.60
2017-07-08T13:38:06.368Z,53.50
2017-07-08T13:40:33.882Z,50.80
2017-07-08T13:43:01.489Z,45.30
2017-07-08T13:45:32.415Z,52.30
2017-07-08T13:48:00.990Z,47.30
2017-07-08T13:50:29.497Z,49.30
2017-07-08T13:52:57.073Z,48.00
2017-07-08T13:55:24.672Z,50.40
2017-07-08T13:57:52.946Z,49.30
2017-07-08T14:00:20.773Z,49.00
2017-07-08T14:02:48.285Z,47.60
2017-07-08T14:05:20.942Z,52.00
2017-07-08T14:07:51.833Z,51.90
2017-07-08T14:10:19.926Z,54.00
2017-07-08T14:12:47.535Z,48.80
2017-07-08T14:15:15.054Z,49.10
2017-07-08T14:17:42.614Z,50.70
2017-07-08T14:20:10.197Z,50.90
2017-07-08T14:22:38.545Z,50.00
2017-07-08T14:25:06.134Z,50.00
2017-07-08T14:27:34.057Z,48.00
2017-07-08T14:30:01.655Z,52.70
2017-07-08T14:32:29.769Z,49.30
2017-07-08T14:34:57.862Z,49.50
2017-07-08T14:37:25.383Z,46.60
2017-07-08T14:39:52.921Z,49.80
2017-07-08T14:42:20.455Z,49.00
2017-07-08T14:44:48.795Z,50.20
2017-07-08T14:47:16.361Z,49.30
2017-07-08T14:49:43.947Z,46.00
2017-07-08T14:52:12.315Z,46.10
2017-07-08T14:54:41.021Z,50.80
2017-07-08T14:57:08.621Z,49.40
2017-07-08T14:59:36.487Z,49.00
2017-07-08T15:02:04.401Z,49.60
2017-07-08T15:04:31.941Z,47.00
2017-07-08T15:06:59.729Z,49.70
2017-07-08T15:09:27.636Z,49.10
2017-07-08T15:11:55.522Z,47.10
2017-07-08T15:14:23.417Z,46.60
2017-07-08T15:16:51.698Z,47.50
2017-07-08T15:19:19.505Z,47.60
2017-07-08T15:21:47.021Z,46.80
2017-07-08T15:24:14.558Z,47.90
2017-07-08T15:26:42.843Z,49.30
2017-07-08T15:29:10.720Z,49.50
2017-07-08T15:31:38.519Z,47.40
2017-07-08T15:34:06.081Z,45.60
2017-07-08T15:36:33.865Z,42.80
2017-07-08T15:39:01.701Z,47.40
2017-07-08T15:41:29.238Z,41.70
2017-07-08T15:43:56.751Z,42.20
2017-07-08T15:46:25.366Z,42.20
2017-07-08T15:48:53.146Z,40.90
2017-07-08T15:51:20.739Z,41.10
2017-07-08T15:53:48.248Z,42.80
2017-07-08T15:56:15.778Z,44.30
2017-07-08T15:58:44.097Z,44.20
2017-07-08T16:01:11.977Z,44.20
2017-07-08T16:03:39.667Z,48.30
2017-07-08T16:06:08.210Z,47.30
2017-07-08T16:08:35.903Z,45.80
2017-07-08T16:11:04.230Z,47.80
2017-07-08T16:13:31.799Z,46.60
2017-07-08T16:15:59.626Z,50.90
2017-07-08T16:18:27.945Z,45.10
2017-07-08T16:20:55.491Z,45.10
2017-07-08T16:23:23.400Z,42.00
2017-07-08T16:25:51.069Z,42.20
2017-07-08T16:28:19.354Z,44.20
2017-07-08T16:30:46.891Z,43.80
2017-07-08T16:33:15.217Z,48.40
2017-07-08T16:35:42.797Z,47.30
2017-07-08T16:38:10.345Z,51.40
2017-07-08T16:40:37.956Z,51.30
2017-07-08T16:43:06.390Z,54.40
2017-07-08T16:45:33.924Z,54.10
2017-07-08T16:48:01.868Z,51.20
2017-07-08T16:50:29.425Z,51.30
2017-07-08T16:52:57.236Z,53.20
2017-07-08T16:55:24.799Z,48.70
2017-07-08T16:57:52.400Z,47.20
2017-07-08T17:00:19.933Z,51.30
2017-07-08T17:02:47.479Z,48.90
2017-07-08T17:05:14.986Z,50.60
2017-07-08T17:07:42.526Z,47.50
2017-07-08T17:10:10.122Z,43.20
2017-07-08T17:12:37.645Z,41.90
2017-07-08T17:15:05.217Z,42.40
2017-07-08T17:17:32.749Z,41.20
2017-07-08T17:20:01.037Z,40.00
2017-07-08T17:22:28.596Z,39.80
2017-07-08T17:24:56.146Z,38.30
2017-07-08T17:27:24.440Z,40.90
2017-07-08T17:29:52.227Z,41.00
2017-07-08T17:32:20.068Z,41.50
2017-07-08T17:34:47.568Z,44.40
2017-07-08T17:37:15.153Z,43.60
2017-07-08T17:39:43.417Z,43.00
2017-07-08T17:42:11.069Z,42.90
2017-07-08T17:44:38.667Z,45.10
2017-07-08T17:47:06.457Z,45.60
2017-07-08T17:49:33.961Z,43.90
2017-07-08T17:52:02.471Z,47.30
2017-07-08T17:54:30.167Z,47.30
2017-07-08T17:56:57.678Z,47.20
2017-07-08T17:59:25.426Z,49.90
2017-07-08T18:01:54.268Z,51.20
2017-07-08T18:04:21.880Z,51.20
2017-07-08T18:06:49.393Z,53.20
2017-07-08T18:09:16.901Z,56.60
2017-07-08T18:11:44.429Z,56.80
2017-07-08T18:14:13.077Z,55.60
2017-07-08T18:16:40.655Z,57.60
2017-07-08T18:19:08.166Z,60.00
2017-07-08T18:21:35.822Z,62.50
2017-07-08T18:24:03.336Z,64.40
2017-07-08T18:26:30.838Z,66.30
2017-07-08T18:28:59.018Z,66.30
2017-07-08T18:31:26.794Z,68.10
2017-07-08T18:33:54.377Z,71.40
2017-07-08T18:36:21.958Z,71.80
2017-07-08T18:38:50.298Z,72.60
2017-07-08T18:41:17.805Z,72.50
2017-07-08T18:43:45.715Z,72.30
2017-07-08T18:46:13.279Z,72.60
2017-07-08T18:48:40.781Z,75.50
2017-07-08T18:51:08.377Z,81.10
2017-07-08T18:53:36.247Z,82.10
2017-07-08T18:56:03.794Z,87.20
2017-07-08T18:58:31.347Z,91.00
2017-07-08T19:00:58.922Z,92.10
2017-07-08T19:03:26.569Z,94.00
2017-07-08T19:05:54.066Z,99.30
2017-07-08T19:08:21.907Z,99.90
2017-07-08T19:10:49.764Z,99.90
2017-07-08T19:13:17.350Z,99.90
2017-07-08T19:15:44.932Z,99.90
2017-07-08T19:18:14.329Z,99.90
2017-07-08T19:20:42.686Z,99.90
2017-07-08T19:23:10.201Z,99.90
2017-07-08T19:25:37.795Z,99.90
2017-07-08T19:28:05.629Z,99.90
2017-07-08T19:30:33.179Z,99.90
2017-07-08T19:33:00.709Z,99.90
2017-07-08T19:35:28.700Z,99.90
2017-07-08T19:37:56.322Z,99.90
2017-07-08T19:40:24.646Z,99.90
2017-07-08T19:42:52.510Z,99.90
2017-07-08T19:45:20.077Z,99.90
2017-07-08T19:47:47.868Z,99.90
2017-07-08T19:50:16.174Z,99.90
2017-07-08T19:52:44.070Z,99.90
2017-07-08T19:55:11.627Z,99.90
2017-07-08T19:57:39.174Z,99.90
2017-07-08T20:00:07.049Z,99.90
2017-07-08T20:02:34.808Z,99.90
2017-07-08T20:05:02.347Z,99.90
2017-07-08T20:07:30.153Z,99.90
2017-07-08T20:09:57.722Z,99.90
2017-07-08T20:12:25.306Z,99.90
2017-07-08T20:14:52.813Z,99.90
2017-07-08T20:17:20.391Z,99.90
2017-07-08T20:19:47.988Z,99.90
2017-07-08T20:22:15.551Z,99.90
2017-07-08T20:24:44.451Z,99.90
2017-07-08T20:27:12.022Z,99.90
2017-07-08T20:29:39.534Z,99.90
2017-07-08T20:32:07.112Z,99.90
2017-07-08T20:34:34.625Z,99.90
2017-07-08T20:37:02.135Z,99.90
2017-07-08T20:39:30.183Z,99.90
2017-07-08T20:41:57.763Z,99.90
2017-07-08T20:44:25.302Z,99.90
2017-07-08T20:46:52.876Z,99.90
2017-07-08T20:49:20.417Z,99.90
2017-07-08T20:51:48.519Z,99.90
2017-07-08T20:54:16.070Z,99.90
2017-07-08T20:56:43.766Z,99.90
2017-07-08T20:59:11.348Z,99.90
2017-07-08T21:01:39.159Z,99.90
2017-07-08T21:04:06.701Z,99.90
2017-07-08T21:06:34.325Z,99.90
2017-07-08T21:09:02.609Z,99.90
2017-07-08T21:11:30.442Z,99.90
2017-07-08T21:13:57.957Z,99.90
2017-07-08T21:16:25.498Z,99.90
2017-07-08T21:18:53.286Z,99.90
2017-07-08T21:21:20.857Z,99.90
2017-07-08T21:23:48.398Z,99.90
2017-07-08T21:26:16.246Z,99.90
2017-07-08T21:28:43.824Z,99.90
2017-07-08T21:31:11.456Z,99.90
2017-07-08T21:33:39.246Z,99.90
2017-07-08T21:36:07.062Z,99.90
2017-07-08T21:38:35.696Z,99.90
2017-07-08T21:41:04.414Z,99.90
2017-07-08T21:43:32.022Z,99.90
2017-07-08T21:46:00.349Z,99.90
2017-07-08T21:48:28.658Z,99.90
2017-07-08T21:50:56.192Z,99.90
2017-07-08T21:53:24.526Z,99.90
2017-07-08T21:55:52.089Z,99.90
2017-07-08T21:58:19.642Z,99.90
2017-07-08T22:00:47.190Z,99.90
2017-07-08T22:03:14.782Z,99.90
2017-07-08T22:05:42.419Z,99.90
2017-07-08T22:08:10.081Z,99.90
2017-07-08T22:10:37.754Z,99.90
2017-07-08T22:13:06.376Z,99.90
2017-07-08T22:15:33.939Z,99.90
2017-07-08T22:18:01.977Z,99.90
2017-07-08T22:20:30.669Z,99.90
2017-07-08T22:22:59.323Z,99.90
2017-07-08T22:25:27.388Z,99.90
2017-07-08T22:27:55.067Z,99.90
2017-07-08T22:30:22.678Z,99.90
2017-07-08T22:32:50.483Z,99.90
2017-07-08T22:35:18.094Z,99.90
2017-07-08T22:37:45.735Z,99.90
2017-07-08T22:40:13.336Z,99.90
2017-07-08T22:42:40.887Z,99.90
2017-07-08T22:45:08.469Z,99.90
2017-07-08T22:47:36.076Z,99.90
2017-07-08T22:50:03.644Z,99.90
2017-07-08T22:52:31.414Z,99.90
2017-07-08T22:54:58.987Z,99.90
2017-07-08T22:57:26.555Z,99.90
2017-07-08T22:59:54.135Z,99.90
2017-07-08T23:02:23.071Z,99.90
2017-07-08T23:04:50.715Z,99.90
2017-07-08T23:07:18.348Z,99.90
2017-07-08T23:09:45.935Z,99.90
2017-07-08T23:12:13.570Z,99.90
2017-07-08T23:14:42.084Z,99.90
2017-07-08T23:17:10.487Z,99.90
2017-07-08T23:19:38.404Z,99.90
2017-07-08T23:22:06.142Z,99.90
2017-07-08T23:24:33.855Z,99.90
2017-07-08T23:27:01.476Z,99.90
2017-07-08T23:29:30.068Z,99.90
2017-07-08T23:31:58.189Z,99.90
2017-07-08T23:34:26.273Z,99.90
2017-07-08T23:36:54.275Z,99.90
2017-07-08T23:39:21.868Z,99.90
2017-07-08T23:41:49.712Z,99.90
2017-07-08T23:44:17.335Z,99.90
2017-07-08T23:46:45.680Z,99.90
2017-07-08T23:49:13.442Z,99.90
2017-07-08T23:51:41.040Z,99.90
2017-07-08T23:54:09.303Z,99.90
2017-07-08T23:56:37.973Z,99.90
2017-07-08T23:59:05.896Z,99.90
